Decoded Metar for KNRB (MAYPORT NAS in FL, USA) (IATA:NRB) | Meteo·Mobile Aviation Weather
aviador You're here:

KNRB Decoded Metar

MAYPORT NAS in FL, USA
Report Time2019-06-27 07:52:00
UTC Time2019-06-27 08:01:27
Flight Rules vfr VFR
WindCalm
Visibility9999 m
Phenomena:N/A
Clouds:N/A
Expected CloudBase > 1,200 ft AGL from Temp-Dew spread
CeilingNone
Temp26°C (ISA +11)
Dew Point23°C (84% RH)
QNH1020 hPa
Density Alt1,424 ft
Elevation16 ft
Report Wrong Elevation
Raw Report
METAR KNRB 270752Z AUTO 00000KT 10SM CLR 26/23 A3011 RMK AO2 SLP194
T02560233 $=

Extra information for KNRB:More info

Metar Taf Metar & Taf Last 4 Metars F.Rules Stats Wind Profile Meteogram Temp Stats Airport Information Weather charts Add Link Nearby VenuesMetar ALERT Operation Metar Decoded Social comments

AIRNAV info for KNRB